createdAt,value
2022-12-28T00:01:07.000Z,276.21
2022-12-28T00:02:34.000Z,276.21
2022-12-28T00:04:40.000Z,276.21
2022-12-28T00:06:06.000Z,276.15
2022-12-28T00:08:12.000Z,276.15
2022-12-28T00:09:39.000Z,276.15
2022-12-28T00:11:45.000Z,276.21
2022-12-28T00:13:11.000Z,276.21
2022-12-28T00:15:17.000Z,276.27
2022-12-28T00:16:44.000Z,276.15
2022-12-28T00:18:50.000Z,276.21
2022-12-28T00:20:17.000Z,276.15
2022-12-28T00:22:23.000Z,276.21
2022-12-28T00:23:49.000Z,276.21
2022-12-28T00:25:56.000Z,276.15
2022-12-28T00:27:22.000Z,276.15
2022-12-28T00:29:28.000Z,276.21
2022-12-28T00:30:55.000Z,276.27
2022-12-28T00:33:01.000Z,276.21
2022-12-28T00:34:28.000Z,276.15
2022-12-28T00:36:34.000Z,276.15
2022-12-28T00:40:01.000Z,276.21
2022-12-28T00:41:28.000Z,276.21
2022-12-28T00:43:34.000Z,276.34
2022-12-28T00:45:00.000Z,276.4
2022-12-28T00:47:07.000Z,276.34
2022-12-28T00:48:33.000Z,276.4
2022-12-28T00:50:39.000Z,276.4
2022-12-28T00:52:06.000Z,276.46
2022-12-28T00:54:12.000Z,276.4
2022-12-28T00:55:38.000Z,276.46
2022-12-28T00:57:45.000Z,276.4
2022-12-28T00:59:11.000Z,276.4
2022-12-28T01:01:17.000Z,276.52
2022-12-28T01:02:44.000Z,276.52
2022-12-28T01:04:51.000Z,276.4
2022-12-28T01:06:18.000Z,276.4
2022-12-28T01:08:24.000Z,276.46
2022-12-28T01:09:51.000Z,276.52
2022-12-28T01:11:57.000Z,276.52
2022-12-28T01:13:23.000Z,276.52
2022-12-28T01:15:29.000Z,276.52
2022-12-28T01:18:20.000Z,276.52
2022-12-28T01:19:47.000Z,276.52
2022-12-28T01:21:58.000Z,276.46
2022-12-28T01:23:24.000Z,276.46
2022-12-28T01:25:30.000Z,276.52
2022-12-28T01:26:57.000Z,276.46
2022-12-28T01:29:03.000Z,276.46
2022-12-28T01:30:29.000Z,276.52
2022-12-28T01:32:35.000Z,276.52
2022-12-28T01:34:02.000Z,276.59
2022-12-28T01:36:10.000Z,276.59
2022-12-28T01:37:37.000Z,276.52
2022-12-28T01:39:43.000Z,276.52
2022-12-28T01:41:10.000Z,276.52
2022-12-28T01:43:16.000Z,276.59
2022-12-28T01:44:55.000Z,276.65
2022-12-28T01:47:01.000Z,276.59
2022-12-28T01:48:28.000Z,276.59
2022-12-28T01:50:34.000Z,276.59
2022-12-28T01:52:00.000Z,276.59
2022-12-28T01:54:06.000Z,276.59
2022-12-28T01:56:58.000Z,276.52
2022-12-28T01:58:24.000Z,276.59
2022-12-28T02:00:30.000Z,276.71
2022-12-28T02:01:57.000Z,276.59
2022-12-28T02:04:03.000Z,276.52
2022-12-28T02:05:30.000Z,276.59
2022-12-28T02:07:36.000Z,276.52
2022-12-28T02:09:02.000Z,276.46
2022-12-28T02:11:08.000Z,276.52
2022-12-28T02:12:35.000Z,276.52
2022-12-28T02:14:41.000Z,276.59
2022-12-28T02:16:08.000Z,276.52
2022-12-28T02:18:14.000Z,276.59
2022-12-28T02:19:40.000Z,276.59
2022-12-28T02:21:46.000Z,276.52
2022-12-28T02:23:13.000Z,276.59
2022-12-28T02:25:19.000Z,276.65
2022-12-28T02:26:46.000Z,276.65
2022-12-28T02:28:52.000Z,276.59
2022-12-28T02:30:18.000Z,276.65
2022-12-28T02:32:24.000Z,276.59
2022-12-28T02:35:15.000Z,276.71
2022-12-28T02:36:42.000Z,276.71
2022-12-28T02:38:48.000Z,276.71
2022-12-28T02:40:15.000Z,276.77
2022-12-28T02:42:21.000Z,276.71
2022-12-28T02:43:47.000Z,276.77
2022-12-28T02:45:53.000Z,276.77
2022-12-28T02:47:20.000Z,276.71
2022-12-28T02:49:26.000Z,276.77
2022-12-28T02:50:53.000Z,276.77
2022-12-28T02:52:59.000Z,276.77
2022-12-28T02:54:25.000Z,276.71
2022-12-28T02:56:32.000Z,276.77
2022-12-28T02:57:58.000Z,276.9
2022-12-28T03:00:04.000Z,276.77
2022-12-28T03:01:31.000Z,276.84
2022-12-28T03:03:37.000Z,276.84
2022-12-28T03:05:03.000Z,276.9
2022-12-28T03:07:10.000Z,276.84
2022-12-28T03:08:36.000Z,276.84
2022-12-28T03:10:42.000Z,276.77
2022-12-28T03:13:33.000Z,276.77
2022-12-28T03:15:00.000Z,276.84
2022-12-28T03:17:06.000Z,276.77
2022-12-28T03:18:32.000Z,276.84
2022-12-28T03:20:38.000Z,276.77
2022-12-28T03:22:05.000Z,276.84
2022-12-28T03:24:11.000Z,276.84
2022-12-28T03:25:38.000Z,276.84
2022-12-28T03:27:44.000Z,276.84
2022-12-28T03:29:10.000Z,276.9
2022-12-28T03:31:16.000Z,276.84
2022-12-28T03:32:43.000Z,276.9
2022-12-28T03:34:49.000Z,276.9
2022-12-28T03:36:16.000Z,276.9
2022-12-28T03:38:22.000Z,276.9
2022-12-28T03:39:48.000Z,276.9
2022-12-28T03:41:54.000Z,276.9
2022-12-28T03:43:21.000Z,276.96
2022-12-28T03:45:27.000Z,277.02
2022-12-28T03:47:11.000Z,277.02
2022-12-28T03:49:18.000Z,277.09
2022-12-28T03:52:09.000Z,277.09
2022-12-28T03:53:35.000Z,277.15
2022-12-28T03:55:42.000Z,277.15
2022-12-28T03:57:08.000Z,277.09
2022-12-28T03:59:14.000Z,277.09
2022-12-28T04:00:41.000Z,277.09
2022-12-28T04:02:47.000Z,277.09
2022-12-28T04:04:13.000Z,277.09
2022-12-28T04:06:20.000Z,277.15
2022-12-28T04:07:46.000Z,277.15
2022-12-28T04:09:52.000Z,277.15
2022-12-28T04:11:19.000Z,277.15
2022-12-28T04:13:25.000Z,277.09
2022-12-28T04:14:51.000Z,277.09
2022-12-28T04:16:58.000Z,277.09
2022-12-28T04:18:24.000Z,277.09
2022-12-28T04:20:30.000Z,277.09
2022-12-28T04:21:57.000Z,277.09
2022-12-28T04:24:03.000Z,277.09
2022-12-28T04:25:29.000Z,277.09
2022-12-28T04:27:35.000Z,277.02
2022-12-28T04:30:26.000Z,277.09
2022-12-28T04:31:53.000Z,277.09
2022-12-28T04:33:59.000Z,277.15
2022-12-28T04:35:25.000Z,277.15
2022-12-28T04:37:31.000Z,277.09
2022-12-28T04:38:58.000Z,277.02
2022-12-28T04:41:04.000Z,277.09
2022-12-28T04:42:31.000Z,277.09
2022-12-28T04:44:37.000Z,277.09
2022-12-28T04:46:03.000Z,277.09
2022-12-28T04:48:10.000Z,277.09
2022-12-28T04:49:36.000Z,277.02
2022-12-28T04:51:42.000Z,277.02
2022-12-28T04:53:09.000Z,277.02
2022-12-28T04:55:15.000Z,277.02
2022-12-28T04:56:57.000Z,277.02
2022-12-28T04:59:04.000Z,277.15
2022-12-28T05:00:30.000Z,277.15
2022-12-28T05:02:36.000Z,277.09
2022-12-28T05:04:03.000Z,277.09
2022-12-28T05:06:09.000Z,277.09
2022-12-28T05:09:00.000Z,277.09
2022-12-28T05:10:27.000Z,277.15
2022-12-28T05:12:33.000Z,277.21
2022-12-28T05:13:59.000Z,277.21
2022-12-28T05:16:05.000Z,277.27
2022-12-28T05:17:32.000Z,277.27
2022-12-28T05:19:38.000Z,277.27
2022-12-28T05:21:05.000Z,277.27
2022-12-28T05:23:11.000Z,277.27
2022-12-28T05:24:37.000Z,277.27
2022-12-28T05:26:43.000Z,277.27
2022-12-28T05:28:10.000Z,277.21
2022-12-28T05:30:16.000Z,277.34
2022-12-28T05:31:42.000Z,277.34
2022-12-28T05:33:49.000Z,277.34
2022-12-28T05:35:15.000Z,277.4
2022-12-28T05:37:21.000Z,277.4
2022-12-28T05:38:48.000Z,277.4
2022-12-28T05:40:54.000Z,277.4
2022-12-28T05:42:21.000Z,277.4
2022-12-28T05:44:27.000Z,277.4
2022-12-28T05:47:18.000Z,277.46
2022-12-28T05:48:44.000Z,277.46
2022-12-28T05:50:51.000Z,277.46
2022-12-28T05:52:21.000Z,277.46
2022-12-28T05:54:27.000Z,277.46
2022-12-28T05:55:53.000Z,277.4
2022-12-28T05:58:00.000Z,277.46
2022-12-28T05:59:26.000Z,277.46
2022-12-28T06:01:32.000Z,277.46
2022-12-28T06:02:59.000Z,277.46
2022-12-28T06:05:05.000Z,277.59
2022-12-28T06:06:32.000Z,277.59
2022-12-28T06:08:38.000Z,277.52
2022-12-28T06:10:04.000Z,277.46
2022-12-28T06:12:11.000Z,277.52
2022-12-28T06:13:37.000Z,277.52
2022-12-28T06:15:43.000Z,277.59
2022-12-28T06:17:10.000Z,277.59
2022-12-28T06:19:16.000Z,277.59
2022-12-28T06:20:42.000Z,277.65
2022-12-28T06:22:49.000Z,277.59
2022-12-28T06:25:40.000Z,277.65
2022-12-28T06:27:06.000Z,277.71
2022-12-28T06:29:12.000Z,277.71
2022-12-28T06:30:39.000Z,277.71
2022-12-28T06:32:45.000Z,277.71
2022-12-28T06:34:11.000Z,277.71
2022-12-28T06:36:18.000Z,277.71
2022-12-28T06:37:45.000Z,277.65
2022-12-28T06:39:51.000Z,277.84
2022-12-28T06:41:18.000Z,277.84
2022-12-28T06:43:24.000Z,277.84
2022-12-28T06:44:50.000Z,277.9
2022-12-28T06:46:56.000Z,277.84
2022-12-28T06:48:23.000Z,277.84
2022-12-28T06:50:29.000Z,277.84
2022-12-28T06:52:02.000Z,277.84
2022-12-28T06:54:08.000Z,277.96
2022-12-28T06:55:35.000Z,277.9
2022-12-28T06:57:41.000Z,277.84
2022-12-28T06:59:08.000Z,277.9
2022-12-28T07:01:14.000Z,278.02
2022-12-28T07:04:05.000Z,277.96
2022-12-28T07:05:31.000Z,277.96
2022-12-28T07:07:38.000Z,277.96
2022-12-28T07:09:04.000Z,278.21
2022-12-28T07:11:10.000Z,278.27
2022-12-28T07:12:37.000Z,278.21
2022-12-28T07:14:43.000Z,278.21
2022-12-28T07:16:09.000Z,278.27
2022-12-28T07:18:16.000Z,278.27
2022-12-28T07:19:42.000Z,278.34
2022-12-28T07:21:48.000Z,278.34
2022-12-28T07:23:15.000Z,278.4
2022-12-28T07:25:21.000Z,278.4
2022-12-28T07:26:47.000Z,278.46
2022-12-28T07:28:54.000Z,278.34
2022-12-28T07:30:20.000Z,278.27
2022-12-28T07:32:26.000Z,278.4
2022-12-28T07:33:53.000Z,278.4
2022-12-28T07:35:59.000Z,278.4
2022-12-28T07:37:25.000Z,278.46
2022-12-28T07:39:31.000Z,278.52
2022-12-28T07:42:22.000Z,278.46
2022-12-28T07:43:49.000Z,278.4
2022-12-28T07:45:55.000Z,278.4
2022-12-28T07:47:22.000Z,278.4
2022-12-28T07:49:28.000Z,278.4
2022-12-28T07:50:54.000Z,278.59
2022-12-28T07:53:00.000Z,278.59
2022-12-28T07:54:27.000Z,278.52
2022-12-28T07:57:59.000Z,278.59
2022-12-28T08:00:05.000Z,278.52
2022-12-28T08:01:32.000Z,278.65
2022-12-28T08:03:38.000Z,278.59
2022-12-28T08:05:05.000Z,278.65
2022-12-28T08:07:11.000Z,278.71
2022-12-28T08:08:38.000Z,278.65
2022-12-28T08:10:44.000Z,278.65
2022-12-28T08:12:10.000Z,278.59
2022-12-28T08:14:16.000Z,278.65
2022-12-28T08:15:43.000Z,278.71
2022-12-28T08:17:49.000Z,278.71
2022-12-28T08:20:40.000Z,278.77
2022-12-28T08:22:07.000Z,278.71
2022-12-28T08:24:13.000Z,278.59
2022-12-28T08:25:39.000Z,278.65
2022-12-28T08:27:45.000Z,278.71
2022-12-28T08:29:12.000Z,278.71
2022-12-28T08:31:18.000Z,278.65
2022-12-28T08:32:45.000Z,278.65
2022-12-28T08:34:51.000Z,278.71
2022-12-28T08:36:17.000Z,278.71
2022-12-28T08:38:23.000Z,278.84
2022-12-28T08:39:50.000Z,278.77
2022-12-28T08:41:56.000Z,278.77
2022-12-28T08:43:23.000Z,278.84
2022-12-28T08:45:29.000Z,278.84
2022-12-28T08:46:55.000Z,278.84
2022-12-28T08:49:02.000Z,278.9
2022-12-28T08:50:28.000Z,278.9
2022-12-28T08:52:36.000Z,278.84
2022-12-28T08:54:02.000Z,278.96
2022-12-28T08:56:08.000Z,278.84
2022-12-28T08:58:59.000Z,278.96
2022-12-28T09:00:26.000Z,278.9
2022-12-28T09:02:32.000Z,279.02
2022-12-28T09:03:59.000Z,279.02
2022-12-28T09:06:05.000Z,279.09
2022-12-28T09:07:31.000Z,279.09
2022-12-28T09:09:37.000Z,279.02
2022-12-28T09:11:04.000Z,279.09
2022-12-28T09:13:10.000Z,279.09
2022-12-28T09:14:37.000Z,279.09
2022-12-28T09:16:43.000Z,279.09
2022-12-28T09:18:09.000Z,279.09
2022-12-28T09:20:16.000Z,279.15
2022-12-28T09:21:42.000Z,279.15
2022-12-28T09:23:48.000Z,279.15
2022-12-28T09:25:15.000Z,279.21
2022-12-28T09:27:21.000Z,279.21
2022-12-28T09:28:48.000Z,279.21
2022-12-28T09:30:54.000Z,279.21
2022-12-28T09:32:21.000Z,279.21
2022-12-28T09:34:27.000Z,279.15
2022-12-28T09:37:26.000Z,279.21
2022-12-28T09:38:52.000Z,279.15
2022-12-28T09:40:58.000Z,279.21
2022-12-28T09:42:25.000Z,279.27
2022-12-28T09:44:31.000Z,279.27
2022-12-28T09:45:57.000Z,279.34
2022-12-28T09:48:04.000Z,279.34
2022-12-28T09:49:30.000Z,279.27
2022-12-28T09:51:36.000Z,279.27
2022-12-28T09:53:03.000Z,279.34
2022-12-28T09:55:09.000Z,279.27
2022-12-28T09:56:35.000Z,279.34
2022-12-28T09:58:42.000Z,279.27
2022-12-28T10:00:12.000Z,279.34
2022-12-28T10:02:21.000Z,279.34
2022-12-28T10:03:47.000Z,279.27
2022-12-28T10:05:54.000Z,279.34
2022-12-28T10:07:20.000Z,279.34
2022-12-28T10:09:26.000Z,279.4
2022-12-28T10:10:53.000Z,279.46
2022-12-28T10:12:59.000Z,279.46
2022-12-28T10:15:50.000Z,279.52
2022-12-28T10:17:16.000Z,279.59
2022-12-28T10:19:22.000Z,279.59
2022-12-28T10:20:49.000Z,279.59
2022-12-28T10:22:55.000Z,279.65
2022-12-28T10:24:22.000Z,279.59
2022-12-28T10:26:36.000Z,279.71
2022-12-28T10:28:03.000Z,279.77
2022-12-28T10:30:09.000Z,279.77
2022-12-28T10:31:36.000Z,279.84
2022-12-28T10:33:42.000Z,279.84
2022-12-28T10:35:08.000Z,279.84
2022-12-28T10:37:14.000Z,279.84
2022-12-28T10:38:41.000Z,279.84
2022-12-28T10:40:47.000Z,279.84
2022-12-28T10:42:14.000Z,279.84
2022-12-28T10:44:21.000Z,279.84
2022-12-28T10:46:04.000Z,279.84
2022-12-28T10:48:10.000Z,279.84
2022-12-28T10:49:37.000Z,279.84
2022-12-28T10:51:43.000Z,279.84
2022-12-28T10:54:35.000Z,279.9
2022-12-28T10:56:01.000Z,279.9
2022-12-28T10:58:08.000Z,279.9
2022-12-28T10:59:55.000Z,279.9
2022-12-28T11:02:01.000Z,279.9
2022-12-28T11:03:28.000Z,279.9
2022-12-28T11:05:34.000Z,279.96
2022-12-28T11:07:01.000Z,279.96
2022-12-28T11:09:07.000Z,279.9
2022-12-28T11:10:33.000Z,279.96
2022-12-28T11:12:40.000Z,279.96
2022-12-28T11:14:06.000Z,279.96
2022-12-28T11:16:12.000Z,279.96
2022-12-28T11:17:39.000Z,279.96
2022-12-28T11:19:45.000Z,279.96
2022-12-28T11:21:11.000Z,279.96
2022-12-28T11:23:18.000Z,279.96
2022-12-28T11:24:44.000Z,280.02
2022-12-28T11:26:50.000Z,279.96
2022-12-28T11:28:17.000Z,280.02
2022-12-28T11:30:26.000Z,280.02
2022-12-28T11:33:17.000Z,280.02
2022-12-28T11:34:44.000Z,280.09
2022-12-28T11:36:50.000Z,280.15
2022-12-28T11:38:16.000Z,280.15
2022-12-28T11:40:23.000Z,280.15
2022-12-28T11:41:49.000Z,280.21
2022-12-28T11:44:31.000Z,280.27
2022-12-28T11:45:58.000Z,280.34
2022-12-28T11:48:04.000Z,280.34
2022-12-28T11:49:31.000Z,280.34
2022-12-28T11:51:37.000Z,280.34
2022-12-28T11:53:03.000Z,280.4
2022-12-28T11:55:17.000Z,280.46
2022-12-28T11:56:44.000Z,280.46
2022-12-28T11:58:50.000Z,280.46
2022-12-28T12:00:17.000Z,280.52
2022-12-28T12:02:27.000Z,280.59
2022-12-28T12:03:54.000Z,280.59
2022-12-28T12:06:00.000Z,280.59
2022-12-28T12:07:26.000Z,280.65
2022-12-28T12:09:36.000Z,280.65
2022-12-28T12:12:27.000Z,280.71
2022-12-28T12:13:54.000Z,280.71
2022-12-28T12:16:00.000Z,280.77
2022-12-28T12:17:26.000Z,280.77
2022-12-28T12:19:32.000Z,280.9
2022-12-28T12:20:59.000Z,280.84
2022-12-28T12:23:05.000Z,280.77
2022-12-28T12:24:32.000Z,280.9
2022-12-28T12:26:38.000Z,280.96
2022-12-28T12:28:04.000Z,280.96
2022-12-28T12:30:11.000Z,281.02
2022-12-28T12:31:37.000Z,281.09
2022-12-28T12:33:43.000Z,281.15
2022-12-28T12:35:10.000Z,281.15
2022-12-28T12:37:16.000Z,281.21
2022-12-28T12:38:42.000Z,281.15
2022-12-28T12:40:48.000Z,281.09
2022-12-28T12:42:15.000Z,281.02
2022-12-28T12:44:21.000Z,281.02
2022-12-28T12:45:48.000Z,280.96
2022-12-28T12:47:54.000Z,280.9
2022-12-28T12:50:45.000Z,280.9
2022-12-28T12:52:12.000Z,280.84
2022-12-28T12:54:18.000Z,280.84
2022-12-28T12:55:44.000Z,280.84
2022-12-28T12:57:50.000Z,280.77
2022-12-28T12:59:17.000Z,280.77
2022-12-28T13:01:23.000Z,280.77
2022-12-28T13:02:50.000Z,280.77
2022-12-28T13:04:56.000Z,280.77
2022-12-28T13:06:22.000Z,280.84
2022-12-28T13:08:29.000Z,280.84
2022-12-28T13:09:55.000Z,280.84
2022-12-28T13:12:01.000Z,280.84
2022-12-28T13:13:28.000Z,280.84
2022-12-28T13:15:34.000Z,280.84
2022-12-28T13:17:00.000Z,280.77
2022-12-28T13:19:07.000Z,280.71
2022-12-28T13:20:33.000Z,280.71
2022-12-28T13:22:39.000Z,280.71
2022-12-28T13:24:06.000Z,280.71
2022-12-28T13:26:12.000Z,280.65
2022-12-28T13:29:03.000Z,280.65
2022-12-28T13:30:30.000Z,280.59
2022-12-28T13:32:36.000Z,280.59
2022-12-28T13:34:03.000Z,280.59
2022-12-28T13:36:09.000Z,280.59
2022-12-28T13:37:35.000Z,280.59
2022-12-28T13:39:41.000Z,280.59
2022-12-28T13:41:08.000Z,280.59
2022-12-28T13:43:14.000Z,280.52
2022-12-28T13:44:41.000Z,280.59
2022-12-28T13:46:47.000Z,280.52
2022-12-28T13:48:13.000Z,280.52
2022-12-28T13:50:20.000Z,280.46
2022-12-28T13:51:46.000Z,280.46
2022-12-28T13:53:57.000Z,280.52
2022-12-28T13:55:24.000Z,280.59
2022-12-28T13:57:30.000Z,280.65
2022-12-28T13:59:14.000Z,280.65
2022-12-28T14:01:20.000Z,280.65
2022-12-28T14:02:47.000Z,280.65
2022-12-28T14:04:53.000Z,280.77
2022-12-28T14:07:44.000Z,280.84
2022-12-28T14:09:11.000Z,280.84
2022-12-28T14:11:17.000Z,280.77
2022-12-28T14:12:43.000Z,280.84
2022-12-28T14:14:50.000Z,280.9
2022-12-28T14:16:16.000Z,280.96
2022-12-28T14:18:22.000Z,280.9
2022-12-28T14:19:49.000Z,280.84
2022-12-28T14:21:55.000Z,280.77
2022-12-28T14:23:22.000Z,280.77
2022-12-28T14:25:28.000Z,280.71
2022-12-28T14:26:54.000Z,280.71
2022-12-28T14:29:00.000Z,280.71
2022-12-28T14:30:27.000Z,280.65
2022-12-28T14:32:33.000Z,280.65
2022-12-28T14:34:07.000Z,280.65
2022-12-28T14:37:46.000Z,280.71
2022-12-28T14:38:20.000Z,280.71
2022-12-28T14:39:46.000Z,280.65
2022-12-28T14:41:52.000Z,280.59
2022-12-28T14:43:19.000Z,280.65
2022-12-28T14:45:25.000Z,280.59
2022-12-28T14:48:10.000Z,280.52
2022-12-28T14:49:36.000Z,280.59
2022-12-28T14:51:42.000Z,280.46
2022-12-28T14:53:09.000Z,280.46
2022-12-28T14:55:15.000Z,280.4
2022-12-28T14:56:42.000Z,280.46
2022-12-28T14:58:48.000Z,280.4
2022-12-28T15:00:15.000Z,280.4
2022-12-28T15:41:25.000Z,280.02
2022-12-28T15:42:51.000Z,280.02
2022-12-28T15:44:58.000Z,280.02
2022-12-28T15:46:24.000Z,279.96
2022-12-28T15:48:30.000Z,279.96
2022-12-28T15:49:57.000Z,279.96
2022-12-28T15:52:03.000Z,279.96
2022-12-28T15:53:30.000Z,279.96
2022-12-28T15:55:36.000Z,279.96
2022-12-28T15:57:02.000Z,279.9
2022-12-28T15:59:08.000Z,279.9
2022-12-28T16:00:35.000Z,279.9
2022-12-28T16:02:46.000Z,279.84
2022-12-28T16:04:13.000Z,279.9
2022-12-28T16:06:19.000Z,279.96
2022-12-28T16:07:46.000Z,279.96
2022-12-28T16:09:52.000Z,279.9
2022-12-28T16:11:19.000Z,279.84
2022-12-28T16:13:25.000Z,279.9
2022-12-28T16:16:16.000Z,279.84
2022-12-28T16:17:42.000Z,279.84
2022-12-28T16:20:01.000Z,279.84
2022-12-28T16:21:27.000Z,279.84
2022-12-28T16:23:33.000Z,279.84
2022-12-28T16:25:00.000Z,279.9
2022-12-28T16:27:06.000Z,279.84
2022-12-28T16:28:33.000Z,279.84
2022-12-28T16:30:39.000Z,279.84
2022-12-28T16:32:05.000Z,279.9
2022-12-28T16:34:11.000Z,279.84
2022-12-28T16:35:38.000Z,279.84
2022-12-28T16:37:44.000Z,279.84
2022-12-28T16:39:11.000Z,279.77
2022-12-28T16:41:17.000Z,279.84
2022-12-28T16:42:43.000Z,279.84
2022-12-28T16:44:50.000Z,279.84
2022-12-28T16:46:16.000Z,279.84
2022-12-28T16:48:23.000Z,279.84
2022-12-28T16:49:50.000Z,279.9
2022-12-28T16:51:56.000Z,279.96
2022-12-28T16:54:47.000Z,279.9
2022-12-28T16:56:14.000Z,279.9
2022-12-28T16:58:20.000Z,279.9
2022-12-28T16:59:46.000Z,279.96
2022-12-28T17:01:52.000Z,279.9
2022-12-28T17:03:19.000Z,279.96
2022-12-28T17:05:25.000Z,279.96
2022-12-28T17:06:52.000Z,279.9
2022-12-28T17:08:58.000Z,279.9
2022-12-28T17:10:25.000Z,279.9
2022-12-28T17:12:31.000Z,279.96
2022-12-28T17:13:57.000Z,280.02
2022-12-28T17:16:04.000Z,280.02
2022-12-28T17:17:30.000Z,280.09
2022-12-28T17:19:36.000Z,280.02
2022-12-28T17:21:03.000Z,280.02
2022-12-28T17:23:11.000Z,280.21
2022-12-28T17:24:37.000Z,280.21
2022-12-28T17:26:43.000Z,280.15
2022-12-28T17:28:10.000Z,280.15
2022-12-28T17:30:17.000Z,280.15
2022-12-28T17:33:08.000Z,280.09
2022-12-28T17:34:35.000Z,280.21
2022-12-28T17:36:41.000Z,280.15
2022-12-28T17:38:08.000Z,280.27
2022-12-28T17:40:14.000Z,280.21
2022-12-28T17:41:41.000Z,280.27
2022-12-28T17:43:47.000Z,280.15
2022-12-28T17:45:13.000Z,280.27
2022-12-28T17:47:19.000Z,280.27
2022-12-28T17:48:46.000Z,280.27
2022-12-28T17:50:52.000Z,280.34
2022-12-28T17:52:18.000Z,280.4
2022-12-28T17:54:25.000Z,280.46
2022-12-28T17:55:51.000Z,280.46
2022-12-28T17:57:57.000Z,280.4
2022-12-28T17:59:24.000Z,280.52
2022-12-28T18:01:30.000Z,280.52
2022-12-28T18:02:57.000Z,280.59
2022-12-28T18:05:03.000Z,280.52
2022-12-28T18:06:30.000Z,280.52
2022-12-28T18:08:36.000Z,280.59
2022-12-28T18:11:27.000Z,280.46
2022-12-28T18:12:53.000Z,280.52
2022-12-28T18:14:59.000Z,280.46
2022-12-28T18:16:26.000Z,280.52
2022-12-28T18:18:32.000Z,280.4
2022-12-28T18:19:59.000Z,280.46
2022-12-28T18:22:05.000Z,280.59
2022-12-28T18:23:31.000Z,280.65
2022-12-28T18:25:37.000Z,280.46
2022-12-28T18:27:04.000Z,280.4
2022-12-28T18:29:10.000Z,280.52
2022-12-28T18:30:36.000Z,280.4
2022-12-28T18:32:43.000Z,280.4
2022-12-28T18:34:09.000Z,280.27
2022-12-28T18:36:15.000Z,280.34
2022-12-28T18:37:43.000Z,280.27
2022-12-28T18:39:49.000Z,280.34
2022-12-28T18:41:15.000Z,280.59
2022-12-28T18:43:22.000Z,280.65
2022-12-28T18:44:48.000Z,280.52
2022-12-28T18:46:54.000Z,280.46
2022-12-28T18:49:46.000Z,280.46
2022-12-28T18:51:12.000Z,280.52
2022-12-28T18:53:18.000Z,280.52
2022-12-28T18:54:45.000Z,280.52
2022-12-28T18:56:51.000Z,280.59
2022-12-28T18:58:17.000Z,280.59
2022-12-28T19:00:23.000Z,280.4
2022-12-28T19:01:50.000Z,280.4
2022-12-28T19:04:15.000Z,280.34
2022-12-28T19:05:42.000Z,280.27
2022-12-28T19:07:49.000Z,280.4
2022-12-28T19:09:15.000Z,280.34
2022-12-28T19:11:21.000Z,280.4
2022-12-28T19:12:48.000Z,280.4
2022-12-28T19:14:54.000Z,280.34
2022-12-28T19:16:20.000Z,280.4
2022-12-28T19:18:35.000Z,280.46
2022-12-28T19:20:01.000Z,280.46
2022-12-28T19:22:08.000Z,280.46
2022-12-28T19:23:34.000Z,280.4
2022-12-28T19:25:40.000Z,280.52
2022-12-28T19:28:31.000Z,280.46
2022-12-28T19:29:58.000Z,280.59
2022-12-28T19:32:04.000Z,280.65
2022-12-28T19:33:30.000Z,280.59
2022-12-28T19:35:36.000Z,280.52
2022-12-28T19:37:03.000Z,280.59
2022-12-28T19:39:09.000Z,280.52
2022-12-28T19:40:35.000Z,280.59
2022-12-28T19:42:42.000Z,280.52
2022-12-28T19:44:08.000Z,280.59
2022-12-28T19:46:14.000Z,280.59
2022-12-28T19:47:41.000Z,280.59
2022-12-28T19:49:47.000Z,280.59
2022-12-28T19:51:14.000Z,280.65
2022-12-28T19:53:20.000Z,280.65
2022-12-28T19:54:46.000Z,280.77
2022-12-28T19:56:52.000Z,280.77
2022-12-28T19:58:19.000Z,280.71
2022-12-28T20:00:25.000Z,280.71
2022-12-28T20:01:51.000Z,280.77
2022-12-28T20:03:58.000Z,280.84
2022-12-28T20:06:49.000Z,280.71
2022-12-28T20:08:16.000Z,280.71
2022-12-28T20:10:22.000Z,280.96
2022-12-28T20:11:48.000Z,280.9
2022-12-28T20:13:54.000Z,280.96
2022-12-28T20:15:21.000Z,280.96
2022-12-28T20:17:27.000Z,280.9
2022-12-28T20:18:54.000Z,280.96
2022-12-28T20:21:00.000Z,281.02
2022-12-28T20:22:44.000Z,281.09
2022-12-28T20:26:23.000Z,281.09
2022-12-28T20:28:16.000Z,280.96
2022-12-28T20:29:43.000Z,280.9
2022-12-28T20:31:49.000Z,281.02
2022-12-28T20:33:16.000Z,281.02
2022-12-28T20:35:22.000Z,281.02
2022-12-28T20:36:48.000Z,280.96
2022-12-28T20:38:54.000Z,281.02
2022-12-28T20:40:21.000Z,281.09
2022-12-28T20:42:27.000Z,280.96
2022-12-28T20:43:54.000Z,281.02
2022-12-28T20:46:00.000Z,280.96
2022-12-28T20:47:26.000Z,281.02
2022-12-28T20:49:32.000Z,281.02
2022-12-28T20:50:59.000Z,281.09
2022-12-28T20:53:05.000Z,280.96
2022-12-28T20:54:32.000Z,280.96
2022-12-28T20:56:38.000Z,281.09
2022-12-28T20:58:04.000Z,281.15
2022-12-28T21:00:11.000Z,281.09
2022-12-28T21:01:37.000Z,281.15
2022-12-28T21:03:44.000Z,281.21
2022-12-28T21:06:35.000Z,281.09
2022-12-28T21:08:02.000Z,281.09
2022-12-28T21:10:08.000Z,281.09
2022-12-28T21:11:35.000Z,281.09
2022-12-28T21:13:41.000Z,281.09
2022-12-28T21:15:09.000Z,281.02
2022-12-28T21:17:15.000Z,281.09
2022-12-28T21:18:42.000Z,281.02
2022-12-28T21:20:48.000Z,280.96
2022-12-28T21:22:14.000Z,280.84
2022-12-28T21:24:20.000Z,280.84
2022-12-28T21:25:47.000Z,280.84
2022-12-28T21:27:53.000Z,280.77
2022-12-28T21:29:19.000Z,280.84
2022-12-28T21:31:30.000Z,280.96
2022-12-28T21:32:56.000Z,280.96
2022-12-28T21:35:03.000Z,280.9
2022-12-28T21:36:29.000Z,280.84
2022-12-28T21:38:35.000Z,280.84
2022-12-28T21:40:02.000Z,280.84
2022-12-28T21:42:08.000Z,280.84
2022-12-28T21:44:59.000Z,280.77
2022-12-28T21:46:26.000Z,280.77
2022-12-28T21:48:32.000Z,280.77
2022-12-28T21:49:58.000Z,280.71
2022-12-28T21:52:04.000Z,280.77
2022-12-28T21:53:31.000Z,280.77
2022-12-28T21:55:37.000Z,280.9
2022-12-28T21:57:03.000Z,280.9
2022-12-28T21:59:11.000Z,280.84
2022-12-28T22:00:37.000Z,280.77
2022-12-28T22:02:43.000Z,280.84
2022-12-28T22:04:10.000Z,280.77
2022-12-28T22:06:16.000Z,280.77
2022-12-28T22:07:43.000Z,280.77
2022-12-28T22:09:49.000Z,280.77
2022-12-28T22:11:15.000Z,280.84
2022-12-28T22:13:21.000Z,280.71
2022-12-28T22:14:48.000Z,280.84
2022-12-28T22:16:54.000Z,280.9
2022-12-28T22:20:40.000Z,280.9
2022-12-28T22:23:32.000Z,280.84
2022-12-28T22:24:59.000Z,280.9
2022-12-28T22:27:05.000Z,280.9
2022-12-28T22:28:32.000Z,280.9
2022-12-28T22:30:38.000Z,280.9
2022-12-28T22:32:04.000Z,280.84
2022-12-28T22:34:11.000Z,280.84
2022-12-28T22:35:37.000Z,280.84
2022-12-28T22:37:43.000Z,281.02
2022-12-28T22:39:10.000Z,280.96
2022-12-28T22:41:16.000Z,280.96
2022-12-28T22:42:43.000Z,280.9
2022-12-28T22:44:49.000Z,280.9
2022-12-28T22:46:15.000Z,280.9
2022-12-28T22:48:22.000Z,280.96
2022-12-28T22:49:48.000Z,280.9
2022-12-28T22:51:54.000Z,280.84
2022-12-28T22:53:21.000Z,280.84
2022-12-28T22:55:27.000Z,280.84
2022-12-28T22:56:53.000Z,280.84
2022-12-28T22:58:59.000Z,280.84
2022-12-28T23:01:54.000Z,280.9
2022-12-28T23:03:21.000Z,281.02
2022-12-28T23:05:27.000Z,280.96
2022-12-28T23:06:54.000Z,281.09
2022-12-28T23:09:07.000Z,281.09
2022-12-28T23:10:34.000Z,281.09
2022-12-28T23:12:40.000Z,281.09
2022-12-28T23:14:06.000Z,281.09
2022-12-28T23:16:13.000Z,281.09
2022-12-28T23:17:39.000Z,281.15
2022-12-28T23:19:45.000Z,281.15
2022-12-28T23:21:12.000Z,281.21
2022-12-28T23:23:18.000Z,281.27
2022-12-28T23:24:44.000Z,281.27
2022-12-28T23:26:51.000Z,281.34
2022-12-28T23:28:17.000Z,281.34
2022-12-28T23:30:23.000Z,281.27
2022-12-28T23:31:50.000Z,281.4
2022-12-28T23:33:56.000Z,281.46
2022-12-28T23:35:22.000Z,281.46
2022-12-28T23:37:29.000Z,281.46
2022-12-28T23:40:20.000Z,281.4